createdAt,value
2022-10-01T00:02:08.582Z,100.00
2022-10-01T00:04:37.864Z,100.00
2022-10-01T00:07:09.777Z,100.00
2022-10-01T00:09:38.731Z,100.00
2022-10-01T00:12:07.625Z,100.00
2022-10-01T00:14:38.613Z,100.00
2022-10-01T00:17:07.181Z,100.00
2022-10-01T00:19:35.333Z,100.00
2022-10-01T00:22:03.701Z,100.00
2022-10-01T00:24:32.182Z,100.00
2022-10-01T00:27:00.592Z,100.00
2022-10-01T00:29:31.943Z,100.00
2022-10-01T00:32:00.581Z,100.00
2022-10-01T00:34:29.015Z,100.00
2022-10-01T00:36:57.466Z,100.00
2022-10-01T00:39:26.196Z,100.00
2022-10-01T00:41:54.696Z,100.00
2022-10-01T00:44:35.280Z,100.00
2022-10-01T00:47:12.190Z,100.00
2022-10-01T00:49:41.820Z,100.00
2022-10-01T00:52:14.740Z,100.00
2022-10-01T00:54:57.851Z,100.00
2022-10-01T00:57:27.242Z,100.00
2022-10-01T00:59:58.617Z,100.00
2022-10-01T01:02:27.209Z,100.00
2022-10-01T01:04:55.465Z,100.00
2022-10-01T01:07:23.721Z,100.00
2022-10-01T01:09:54.203Z,100.00
2022-10-01T01:12:25.545Z,100.00
2022-10-01T01:15:27.152Z,100.00
2022-10-01T01:18:10.988Z,100.00
2022-10-01T01:20:57.577Z,100.00
2022-10-01T01:24:01.350Z,100.00
2022-10-01T01:26:32.618Z,100.00
2022-10-01T01:29:21.907Z,100.00
2022-10-01T01:31:50.729Z,100.00
2022-10-01T01:34:30.419Z,100.00
2022-10-01T01:37:12.240Z,100.00
2022-10-01T01:39:49.136Z,100.00
2022-10-01T01:42:32.021Z,100.00
2022-10-01T01:45:02.067Z,100.00
2022-10-01T01:47:33.399Z,100.00
2022-10-01T01:50:03.203Z,100.00
2022-10-01T01:52:33.193Z,100.00
2022-10-01T01:55:07.525Z,100.00
2022-10-01T01:57:44.351Z,100.00
2022-10-01T02:00:14.432Z,100.00
2022-10-01T02:02:50.192Z,100.00
2022-10-01T02:05:25.901Z,100.00
2022-10-01T02:08:12.804Z,100.00
2022-10-01T02:11:13.022Z,100.00
2022-10-01T02:14:03.449Z,100.00
2022-10-01T02:17:13.460Z,100.00
2022-10-01T02:19:57.157Z,100.00
2022-10-01T02:22:30.280Z,100.00
2022-10-01T02:25:01.935Z,100.00
2022-10-01T02:27:35.011Z,100.00
2022-10-01T02:30:07.972Z,100.00
2022-10-01T02:32:39.204Z,100.00
2022-10-01T02:35:11.157Z,100.00
2022-10-01T02:37:42.828Z,100.00
2022-10-01T02:40:16.826Z,100.00
2022-10-01T02:42:55.470Z,100.00
2022-10-01T02:45:26.351Z,100.00
2022-10-01T02:48:01.079Z,100.00
2022-10-01T02:50:37.205Z,100.00
2022-10-01T02:53:09.847Z,100.00
2022-10-01T02:55:40.313Z,100.00
2022-10-01T02:58:08.485Z,100.00
2022-10-01T03:00:37.241Z,100.00
2022-10-01T03:03:05.811Z,100.00
2022-10-01T03:05:33.932Z,100.00
2022-10-01T03:08:02.352Z,100.00
2022-10-01T03:10:31.039Z,100.00
2022-10-01T03:13:01.726Z,100.00
2022-10-01T03:15:29.980Z,100.00
2022-10-01T03:17:59.060Z,100.00
2022-10-01T03:20:27.045Z,100.00
2022-10-01T03:22:55.431Z,100.00
2022-10-01T03:25:24.095Z,100.00
2022-10-01T03:27:53.566Z,100.00
2022-10-01T03:30:22.325Z,100.00
2022-10-01T03:32:50.963Z,100.00
2022-10-01T03:35:19.004Z,100.00
2022-10-01T03:37:48.033Z,100.00
2022-10-01T03:40:16.617Z,100.00
2022-10-01T03:42:44.666Z,100.00
2022-10-01T03:45:13.259Z,100.00
2022-10-01T03:47:42.014Z,100.00
2022-10-01T03:50:10.845Z,100.00
2022-10-01T03:52:39.437Z,100.00
2022-10-01T03:55:08.263Z,100.00
2022-10-01T03:57:36.434Z,100.00
2022-10-01T04:00:07.834Z,100.00
2022-10-01T04:02:39.687Z,100.00
2022-10-01T04:05:08.600Z,100.00
2022-10-01T04:07:36.685Z,100.00
2022-10-01T04:10:05.076Z,100.00
2022-10-01T04:12:33.932Z,100.00
2022-10-01T04:15:01.902Z,100.00
2022-10-01T04:17:30.704Z,100.00
2022-10-01T04:20:00.292Z,100.00
2022-10-01T04:22:28.796Z,100.00
2022-10-01T04:24:56.881Z,100.00
2022-10-01T04:27:25.968Z,100.00
2022-10-01T04:29:53.998Z,100.00
2022-10-01T04:32:22.585Z,100.00
2022-10-01T04:34:53.713Z,100.00
2022-10-01T04:37:22.859Z,100.00
2022-10-01T04:39:51.308Z,100.00
2022-10-01T04:42:20.673Z,100.00
2022-10-01T04:44:48.715Z,100.00
2022-10-01T04:47:17.347Z,100.00
2022-10-01T04:49:46.068Z,100.00
2022-10-01T04:52:14.096Z,100.00
2022-10-01T04:54:42.559Z,100.00
2022-10-01T04:57:10.627Z,100.00
2022-10-01T04:59:38.870Z,100.00
2022-10-01T05:02:07.279Z,100.00
2022-10-01T05:04:35.350Z,100.00
2022-10-01T05:07:03.440Z,100.00
2022-10-01T05:09:31.890Z,100.00
2022-10-01T05:12:00.019Z,100.00
2022-10-01T05:14:28.002Z,100.00
2022-10-01T05:16:56.345Z,100.00
2022-10-01T05:19:27.980Z,100.00
2022-10-01T05:21:56.544Z,100.00
2022-10-01T05:24:24.728Z,100.00
2022-10-01T05:26:54.304Z,100.00
2022-10-01T05:29:23.108Z,100.00
2022-10-01T05:31:51.365Z,100.00
2022-10-01T05:34:19.662Z,100.00
2022-10-01T05:36:48.047Z,100.00
2022-10-01T05:39:16.156Z,100.00
2022-10-01T05:41:44.321Z,100.00
2022-10-01T05:44:12.915Z,100.00
2022-10-01T05:46:41.969Z,100.00
2022-10-01T05:49:10.796Z,100.00
2022-10-01T05:51:39.308Z,100.00
2022-10-01T05:54:08.346Z,100.00
2022-10-01T05:56:36.959Z,100.00
2022-10-01T05:59:05.629Z,100.00
2022-10-01T06:01:34.062Z,100.00
2022-10-01T06:04:02.845Z,100.00
2022-10-01T06:06:30.961Z,100.00
2022-10-01T06:08:59.785Z,100.00
2022-10-01T06:11:28.339Z,100.00
2022-10-01T06:13:56.560Z,100.00
2022-10-01T06:16:24.768Z,100.00
2022-10-01T06:18:57.485Z,100.00
2022-10-01T06:21:26.252Z,100.00
2022-10-01T06:23:54.652Z,100.00
2022-10-01T06:26:22.754Z,100.00
2022-10-01T06:28:51.812Z,100.00
2022-10-01T06:31:21.328Z,100.00
2022-10-01T06:33:49.766Z,100.00
2022-10-01T06:36:18.029Z,100.00
2022-10-01T06:38:49.718Z,100.00
2022-10-01T06:41:18.608Z,100.00
2022-10-01T06:43:49.993Z,100.00
2022-10-01T06:46:18.266Z,100.00
2022-10-01T06:48:47.019Z,100.00
2022-10-01T06:51:15.014Z,100.00
2022-10-01T06:53:43.341Z,100.00
2022-10-01T06:56:11.619Z,100.00
2022-10-01T06:58:39.712Z,100.00
2022-10-01T07:01:07.782Z,100.00
2022-10-01T07:03:36.424Z,100.00
2022-10-01T07:06:05.695Z,100.00
2022-10-01T07:08:33.785Z,100.00
2022-10-01T07:11:03.648Z,100.00
2022-10-01T07:13:31.833Z,100.00
2022-10-01T07:16:00.071Z,100.00
2022-10-01T07:18:28.621Z,100.00
2022-10-01T07:20:57.562Z,100.00
2022-10-01T07:23:25.655Z,100.00
2022-10-01T07:25:54.362Z,100.00
2022-10-01T07:28:25.766Z,100.00
2022-10-01T07:31:05.034Z,100.00
2022-10-01T07:33:33.462Z,100.00
2022-10-01T07:36:05.080Z,100.00
2022-10-01T07:38:33.931Z,100.00
2022-10-01T07:41:03.418Z,100.00
2022-10-01T07:43:33.148Z,100.00
2022-10-01T07:46:04.978Z,100.00
2022-10-01T07:48:33.495Z,100.00
2022-10-01T07:51:01.933Z,100.00
2022-10-01T07:53:30.100Z,100.00
2022-10-01T07:56:01.977Z,100.00
2022-10-01T07:58:30.627Z,100.00
2022-10-01T08:01:03.554Z,100.00
2022-10-01T08:03:32.329Z,100.00
2022-10-01T08:06:03.060Z,100.00
2022-10-01T08:08:31.881Z,100.00
2022-10-01T08:11:02.566Z,100.00
2022-10-01T08:13:30.605Z,100.00
2022-10-01T08:15:59.268Z,100.00
2022-10-01T08:18:28.543Z,100.00
2022-10-01T08:20:56.588Z,100.00
2022-10-01T08:23:25.183Z,100.00
2022-10-01T08:25:53.264Z,100.00
2022-10-01T08:28:21.285Z,100.00
2022-10-01T08:30:49.700Z,100.00
2022-10-01T08:33:18.107Z,100.00
2022-10-01T08:35:46.492Z,100.00
2022-10-01T08:38:15.207Z,100.00
2022-10-01T08:40:47.605Z,100.00
2022-10-01T08:43:29.404Z,100.00
2022-10-01T08:46:04.331Z,100.00
2022-10-01T08:48:56.864Z,100.00
2022-10-01T08:51:29.006Z,100.00
2022-10-01T08:54:23.984Z,100.00
2022-10-01T08:56:55.454Z,100.00
2022-10-01T08:59:35.825Z,100.00
2022-10-01T09:02:29.111Z,100.00
2022-10-01T09:05:01.845Z,100.00
2022-10-01T09:07:39.613Z,100.00
2022-10-01T09:10:45.778Z,100.00
2022-10-01T09:13:34.771Z,100.00
2022-10-01T09:16:19.117Z,100.00
2022-10-01T09:19:02.571Z,100.00
2022-10-01T09:21:46.915Z,100.00
2022-10-01T09:24:22.752Z,100.00
2022-10-01T09:26:51.910Z,100.00
2022-10-01T09:29:40.194Z,100.00
2022-10-01T09:32:16.924Z,100.00
2022-10-01T09:34:45.483Z,100.00
2022-10-01T09:37:25.521Z,100.00
2022-10-01T09:40:15.877Z,100.00
2022-10-01T09:42:44.261Z,100.00
2022-10-01T09:45:14.532Z,100.00
2022-10-01T09:47:48.492Z,100.00
2022-10-01T09:50:25.271Z,100.00
2022-10-01T09:52:54.996Z,100.00
2022-10-01T09:55:39.205Z,100.00
2022-10-01T09:58:18.931Z,100.00
2022-10-01T10:00:51.631Z,100.00
2022-10-01T10:03:31.130Z,100.00
2022-10-01T10:06:01.185Z,100.00
2022-10-01T10:08:35.969Z,100.00
2022-10-01T10:11:10.485Z,100.00
2022-10-01T10:13:49.272Z,100.00
2022-10-01T10:16:20.362Z,100.00
2022-10-01T10:18:52.575Z,100.00
2022-10-01T10:21:24.721Z,100.00
2022-10-01T10:24:02.296Z,100.00
2022-10-01T10:26:34.594Z,100.00
2022-10-01T10:29:05.675Z,100.00
2022-10-01T10:31:42.104Z,100.00
2022-10-01T10:34:21.722Z,100.00
2022-10-01T10:36:58.000Z,100.00
2022-10-01T10:39:30.378Z,100.00
2022-10-01T10:42:00.222Z,100.00
2022-10-01T10:44:35.240Z,100.00
2022-10-01T10:47:07.193Z,100.00
2022-10-01T10:49:43.527Z,100.00
2022-10-01T10:52:21.449Z,100.00
2022-10-01T10:54:59.705Z,100.00
2022-10-01T10:57:31.225Z,100.00
2022-10-01T11:00:00.930Z,100.00
2022-10-01T11:02:33.304Z,100.00
2022-10-01T11:05:19.369Z,100.00
2022-10-01T11:07:51.118Z,100.00
2022-10-01T11:10:40.838Z,100.00
2022-10-01T11:13:34.217Z,100.00
2022-10-01T11:16:17.956Z,100.00
2022-10-01T11:18:58.536Z,100.00
2022-10-01T11:21:33.570Z,100.00
2022-10-01T11:24:19.406Z,100.00
2022-10-01T11:27:24.475Z,100.00
2022-10-01T11:30:08.587Z,100.00
2022-10-01T11:32:43.228Z,100.00
2022-10-01T11:35:30.895Z,100.00
2022-10-01T11:38:20.028Z,100.00
2022-10-01T11:41:14.678Z,100.00
2022-10-01T11:43:47.205Z,100.00
2022-10-01T11:46:33.015Z,100.00
2022-10-01T11:49:30.997Z,100.00
2022-10-01T11:52:34.093Z,100.00
2022-10-01T11:55:46.721Z,100.00
2022-10-01T11:58:52.776Z,100.00
2022-10-01T12:01:24.480Z,100.00
2022-10-01T12:03:52.949Z,100.00
2022-10-01T12:06:33.007Z,100.00
2022-10-01T12:09:19.573Z,100.00
2022-10-01T12:12:06.927Z,100.00
2022-10-01T12:14:52.632Z,100.00
2022-10-01T12:17:26.675Z,100.00
2022-10-01T12:19:59.950Z,100.00
2022-10-01T12:22:32.755Z,100.00
2022-10-01T12:25:01.315Z,100.00
2022-10-01T12:27:38.148Z,100.00
2022-10-01T12:30:20.663Z,100.00
2022-10-01T12:32:58.176Z,100.00
2022-10-01T12:35:47.686Z,100.00
2022-10-01T12:38:25.494Z,100.00
2022-10-01T12:41:19.646Z,100.00
2022-10-01T12:44:15.126Z,100.00
2022-10-01T12:46:56.194Z,100.00
2022-10-01T12:49:42.958Z,100.00
2022-10-01T12:52:33.706Z,100.00
2022-10-01T12:55:46.315Z,100.00
2022-10-01T12:58:44.159Z,100.00
2022-10-01T13:01:48.154Z,100.00
2022-10-01T13:04:38.753Z,100.00
2022-10-01T13:07:30.251Z,100.00
2022-10-01T13:10:18.853Z,100.00
2022-10-01T13:12:59.074Z,100.00
2022-10-01T13:15:34.929Z,100.00
2022-10-01T13:18:05.719Z,100.00
2022-10-01T13:20:41.316Z,100.00
2022-10-01T13:23:28.758Z,100.00
2022-10-01T13:26:26.406Z,100.00
2022-10-01T13:29:00.493Z,100.00
2022-10-01T13:31:39.203Z,100.00
2022-10-01T13:34:26.350Z,100.00
2022-10-01T13:36:54.778Z,100.00
2022-10-01T13:39:36.573Z,100.00
2022-10-01T13:42:31.006Z,100.00
2022-10-01T13:45:05.649Z,100.00
2022-10-01T13:47:42.593Z,100.00
2022-10-01T13:50:24.699Z,100.00
2022-10-01T13:53:25.469Z,100.00
2022-10-01T13:55:54.835Z,100.00
2022-10-01T13:58:34.119Z,100.00
2022-10-01T14:01:10.169Z,100.00
2022-10-01T14:04:20.026Z,100.00
2022-10-01T14:06:58.898Z,100.00
2022-10-01T14:09:29.586Z,100.00
2022-10-01T14:12:26.677Z,100.00
2022-10-01T14:15:16.453Z,100.00
2022-10-01T14:17:46.524Z,100.00
2022-10-01T14:20:30.542Z,100.00
2022-10-01T14:23:12.117Z,100.00
2022-10-01T14:25:43.366Z,100.00
2022-10-01T14:28:33.623Z,100.00
2022-10-01T14:31:15.137Z,100.00
2022-10-01T14:33:46.141Z,100.00
2022-10-01T14:36:19.241Z,100.00
2022-10-01T14:38:47.340Z,100.00
2022-10-01T14:41:20.891Z,100.00
2022-10-01T14:43:49.195Z,100.00
2022-10-01T14:46:18.717Z,100.00
2022-10-01T14:48:58.484Z,100.00
2022-10-01T14:51:30.111Z,100.00
2022-10-01T14:54:00.432Z,100.00
2022-10-01T14:56:29.564Z,100.00
2022-10-01T14:59:03.262Z,100.00
2022-10-01T15:01:31.763Z,100.00
2022-10-01T15:03:59.875Z,100.00
2022-10-01T15:06:30.103Z,100.00
2022-10-01T15:09:15.084Z,100.00
2022-10-01T15:11:44.971Z,100.00
2022-10-01T15:14:24.115Z,100.00
2022-10-01T15:16:52.691Z,100.00
2022-10-01T15:19:23.130Z,100.00
2022-10-01T15:21:57.637Z,100.00
2022-10-01T15:24:30.471Z,100.00
2022-10-01T15:26:58.977Z,100.00
2022-10-01T15:29:28.004Z,100.00
2022-10-01T15:31:57.793Z,100.00
2022-10-01T15:34:27.742Z,100.00
2022-10-01T15:36:56.796Z,100.00
2022-10-01T15:39:30.037Z,100.00
2022-10-01T15:42:01.697Z,100.00
2022-10-01T15:44:42.791Z,100.00
2022-10-01T15:47:31.457Z,100.00
2022-10-01T15:50:08.912Z,100.00
2022-10-01T15:52:55.593Z,100.00
2022-10-01T15:55:26.418Z,100.00
2022-10-01T15:58:07.451Z,100.00
2022-10-01T16:00:58.384Z,100.00
2022-10-01T16:03:32.707Z,100.00
2022-10-01T16:06:06.478Z,100.00
2022-10-01T16:08:48.936Z,100.00
2022-10-01T16:11:31.823Z,100.00
2022-10-01T16:14:23.872Z,100.00
2022-10-01T16:17:17.598Z,100.00
2022-10-01T16:19:47.327Z,100.00
2022-10-01T16:22:22.550Z,100.00
2022-10-01T16:24:53.108Z,100.00
2022-10-01T16:27:35.631Z,100.00
2022-10-01T16:30:07.539Z,100.00
2022-10-01T16:32:35.924Z,100.00
2022-10-01T16:35:26.903Z,100.00
2022-10-01T16:37:56.876Z,100.00
2022-10-01T16:40:29.030Z,100.00
2022-10-01T16:42:58.897Z,100.00
2022-10-01T16:45:34.317Z,100.00
2022-10-01T16:48:02.719Z,100.00
2022-10-01T16:50:31.482Z,100.00
2022-10-01T16:53:01.449Z,100.00
2022-10-01T16:55:36.584Z,96.60
2022-10-01T16:58:06.465Z,94.77
2022-10-01T17:00:37.376Z,96.54
2022-10-01T17:03:09.119Z,98.64
2022-10-01T17:05:37.742Z,100.00
2022-10-01T17:08:11.423Z,100.00
2022-10-01T17:10:44.165Z,100.00
2022-10-01T17:13:14.027Z,100.00
2022-10-01T17:15:42.807Z,100.00
2022-10-01T17:18:14.023Z,100.00
2022-10-01T17:20:42.427Z,100.00
2022-10-01T17:23:13.623Z,100.00
2022-10-01T17:25:42.456Z,100.00
2022-10-01T17:28:14.158Z,100.00
2022-10-01T17:30:48.179Z,100.00
2022-10-01T17:33:22.447Z,100.00
2022-10-01T17:35:54.548Z,100.00
2022-10-01T17:38:23.361Z,100.00
2022-10-01T17:40:56.312Z,100.00
2022-10-01T17:43:25.586Z,100.00
2022-10-01T17:46:01.155Z,100.00
2022-10-01T17:48:30.368Z,99.27
2022-10-01T17:51:00.453Z,99.18
2022-10-01T17:53:34.914Z,99.31
2022-10-01T17:56:14.376Z,98.02
2022-10-01T17:58:45.269Z,98.67
2022-10-01T18:01:22.809Z,100.00
2022-10-01T18:04:00.296Z,100.00
2022-10-01T18:06:29.673Z,100.00
2022-10-01T18:08:58.265Z,99.84
2022-10-01T18:11:28.995Z,97.83
2022-10-01T18:13:58.065Z,97.22
2022-10-01T18:16:27.366Z,95.92
2022-10-01T18:21:49.061Z,95.34
2022-10-01T18:24:17.359Z,95.64
2022-10-01T18:26:48.220Z,96.39
2022-10-01T18:29:20.005Z,95.80
2022-10-01T18:31:52.511Z,97.33
2022-10-01T18:34:28.820Z,97.80
2022-10-01T18:37:04.682Z,98.47
2022-10-01T18:39:43.631Z,98.21
2022-10-01T18:42:57.842Z,98.12
2022-10-01T18:45:38.406Z,97.39
2022-10-01T18:48:26.554Z,97.13
2022-10-01T18:51:16.999Z,95.75
2022-10-01T18:54:03.620Z,96.93
2022-10-01T18:56:36.020Z,95.32
2022-10-01T18:59:22.673Z,97.12
2022-10-01T19:02:05.579Z,95.87
2022-10-01T19:04:52.323Z,95.89
2022-10-01T19:07:30.086Z,96.12
2022-10-01T19:10:12.885Z,95.35
2022-10-01T19:13:06.435Z,95.91
2022-10-01T19:15:56.060Z,97.24
2022-10-01T19:18:46.946Z,98.83
2022-10-01T19:21:18.144Z,98.99
2022-10-01T19:23:55.743Z,100.00
2022-10-01T19:26:36.159Z,100.00
2022-10-01T19:29:08.785Z,100.00
2022-10-01T19:31:57.449Z,100.00
2022-10-01T19:34:44.673Z,100.00
2022-10-01T19:37:26.208Z,100.00
2022-10-01T19:39:58.617Z,100.00
2022-10-01T19:42:33.175Z,100.00
2022-10-01T19:45:07.495Z,100.00
2022-10-01T19:47:46.935Z,100.00
2022-10-01T19:50:30.595Z,100.00
2022-10-01T19:53:02.457Z,99.27
2022-10-01T19:55:38.799Z,99.22
2022-10-01T19:58:21.241Z,99.06
2022-10-01T20:00:57.262Z,100.00
2022-10-01T20:03:40.203Z,94.96
2022-10-01T20:06:47.772Z,94.48
2022-10-01T20:09:44.328Z,93.89
2022-10-01T20:12:36.234Z,91.49
2022-10-01T20:15:40.979Z,91.79
2022-10-01T20:18:35.450Z,93.79
2022-10-01T20:21:39.366Z,89.74
2022-10-01T20:24:21.002Z,90.99
2022-10-01T20:27:11.534Z,93.58
2022-10-01T20:30:08.956Z,90.73
2022-10-01T20:32:55.656Z,89.87
2022-10-01T20:35:56.120Z,88.58
2022-10-01T20:38:30.673Z,88.93
2022-10-01T20:41:04.074Z,89.62
2022-10-01T20:43:44.644Z,88.46
2022-10-01T20:46:19.848Z,88.06
2022-10-01T20:48:53.624Z,87.62
2022-10-01T20:51:49.572Z,88.33
2022-10-01T20:54:27.209Z,88.54
2022-10-01T20:57:13.037Z,86.77
2022-10-01T20:59:44.146Z,88.46
2022-10-01T21:02:34.661Z,89.19
2022-10-01T21:05:37.259Z,88.33
2022-10-01T21:08:16.042Z,87.42
2022-10-01T21:10:54.075Z,88.46
2022-10-01T21:13:31.244Z,89.41
2022-10-01T21:16:38.292Z,90.12
2022-10-01T21:19:37.467Z,88.80
2022-10-01T21:22:37.686Z,92.60
2022-10-01T21:25:36.102Z,90.96
2022-10-01T21:28:35.516Z,90.75
2022-10-01T21:31:33.912Z,92.50
2022-10-01T21:34:21.906Z,91.10
2022-10-01T21:37:05.316Z,94.38
2022-10-01T21:39:40.003Z,96.68
2022-10-01T21:42:08.644Z,97.28
2022-10-01T21:44:51.981Z,98.65
2022-10-01T21:47:52.188Z,98.54
2022-10-01T21:50:44.651Z,98.00
2022-10-01T21:53:28.981Z,97.40
2022-10-01T21:55:58.066Z,97.48
2022-10-01T21:58:49.884Z,95.78
2022-10-01T22:01:41.524Z,94.43
2022-10-01T22:04:40.541Z,98.25
2022-10-01T22:07:23.093Z,99.29
2022-10-01T22:10:00.655Z,94.06
2022-10-01T22:12:32.709Z,96.32
2022-10-01T22:15:03.570Z,92.79
2022-10-01T22:17:34.049Z,89.01
2022-10-01T22:20:05.242Z,91.89
2022-10-01T22:22:38.576Z,92.20
2022-10-01T22:25:08.239Z,91.77
2022-10-01T22:27:44.259Z,90.05
2022-10-01T22:30:18.496Z,92.57
2022-10-01T22:32:55.673Z,91.93
2022-10-01T22:35:32.379Z,92.69
2022-10-01T22:38:08.062Z,93.06
2022-10-01T22:40:42.370Z,90.68
2022-10-01T22:43:12.401Z,90.11
2022-10-01T22:46:05.751Z,89.70
2022-10-01T22:48:45.061Z,90.96
2022-10-01T22:51:30.585Z,90.74
2022-10-01T22:54:18.067Z,91.97
2022-10-01T22:57:00.001Z,90.51
2022-10-01T22:59:46.827Z,93.37
2022-10-01T23:02:46.994Z,97.12
2022-10-01T23:05:22.302Z,97.59
2022-10-01T23:08:25.329Z,97.53
2022-10-01T23:11:26.276Z,99.40
2022-10-01T23:14:06.505Z,99.71
2022-10-01T23:17:06.064Z,100.00
2022-10-01T23:19:52.807Z,100.00
2022-10-01T23:22:29.521Z,100.00
2022-10-01T23:25:23.864Z,100.00
2022-10-01T23:28:10.395Z,100.00
2022-10-01T23:30:54.232Z,100.00
2022-10-01T23:33:47.312Z,100.00
2022-10-01T23:36:27.864Z,100.00
2022-10-01T23:39:36.310Z,100.00
2022-10-01T23:42:22.886Z,96.71
2022-10-01T23:45:20.200Z,96.24
2022-10-01T23:48:01.773Z,99.06
2022-10-01T23:50:49.744Z,98.39
2022-10-01T23:53:23.823Z,96.75
2022-10-01T23:56:21.564Z,95.81
2022-10-01T23:59:09.079Z,90.27
